< < Back
Terminal Aerodrome Forecast


Current Version              Previous Versions:   1  2  3  4  5  6  7  8  9  

Terminal Aerodrome Forecast

443
FTUS42 KMLB 291131
TAFDAB
TAF
KDAB 291131Z 2912/3012 29005KT P6SM FEW002 BKN250
      TEMPO 2912/2913 4SM BR
     FM291300 32008KT P6SM SCT025 BKN060 BKN250
     FM291800 03007KT P6SM VCTS SCT030CB BKN050 BKN150
     FM300100 VRB03KT P6SM SCT020 BKN080 BKN250=



Latest METAR

990
SAUS80 KWBC 301200
MTRDAB
METAR KDAB 301153Z 24005KT 8SM SCT003 SCT150 24/23 A2998 RMK AO2 SLP150
T02440233 10244 20233 51010


USA.gov is the U.S. government's official web portal to all federal, state and local government web resources and services.